createdAt,value
2018-07-13T00:00:38.097Z,99.90
2018-07-13T00:03:07.505Z,99.90
2018-07-13T00:05:36.849Z,99.90
2018-07-13T00:08:06.339Z,99.90
2018-07-13T00:13:04.482Z,99.90
2018-07-13T00:15:35.012Z,99.90
2018-07-13T00:18:04.346Z,99.90
2018-07-13T00:20:33.656Z,99.90
2018-07-13T00:25:31.753Z,99.90
2018-07-13T00:28:01.044Z,99.90
2018-07-13T00:30:30.311Z,99.90
2018-07-13T00:32:59.665Z,99.90
2018-07-13T00:35:28.975Z,99.90
2018-07-13T00:37:58.261Z,99.90
2018-07-13T00:40:27.579Z,99.90
2018-07-13T00:42:56.910Z,99.90
2018-07-13T00:45:26.189Z,99.90
2018-07-13T00:47:55.493Z,99.90
2018-07-13T00:50:24.779Z,99.90
2018-07-13T00:52:54.094Z,99.90
2018-07-13T00:55:23.496Z,99.90
2018-07-13T00:57:52.738Z,99.90
2018-07-13T01:00:31.117Z,99.90
2018-07-13T01:03:01.820Z,99.90
2018-07-13T01:05:31.482Z,99.90
2018-07-13T01:08:00.787Z,99.90
2018-07-13T01:10:30.182Z,99.90
2018-07-13T01:12:59.491Z,99.90
2018-07-13T01:15:28.939Z,99.90
2018-07-13T01:17:58.320Z,99.90
2018-07-13T01:20:27.656Z,99.90
2018-07-13T01:22:56.947Z,99.90
2018-07-13T01:25:26.247Z,99.90
2018-07-13T01:27:55.532Z,99.90
2018-07-13T01:30:24.826Z,99.90
2018-07-13T01:32:54.147Z,99.90
2018-07-13T01:35:23.490Z,99.90
2018-07-13T01:37:52.796Z,99.90
2018-07-13T01:40:22.100Z,99.90
2018-07-13T01:42:51.559Z,99.90
2018-07-13T01:45:20.878Z,99.90
2018-07-13T01:47:50.184Z,99.90
2018-07-13T01:50:19.506Z,99.90
2018-07-13T01:52:48.833Z,99.90
2018-07-13T01:55:18.162Z,99.90
2018-07-13T01:57:47.463Z,99.90
2018-07-13T02:00:16.753Z,99.90
2018-07-13T02:02:46.030Z,99.90
2018-07-13T02:05:15.384Z,99.90
2018-07-13T02:07:44.706Z,99.90
2018-07-13T02:12:42.848Z,99.90
2018-07-13T02:15:12.124Z,99.90
2018-07-13T02:17:41.377Z,99.90
2018-07-13T02:20:10.676Z,99.90
2018-07-13T02:22:39.988Z,99.90
2018-07-13T02:25:09.263Z,99.90
2018-07-13T02:27:38.785Z,99.90
2018-07-13T02:30:08.095Z,99.90
2018-07-13T02:32:37.446Z,99.90
2018-07-13T02:35:06.839Z,99.90
2018-07-13T02:37:36.243Z,99.90
2018-07-13T02:40:05.819Z,99.90
2018-07-13T02:42:35.723Z,99.90
2018-07-13T02:45:05.328Z,99.90
2018-07-13T02:47:34.811Z,99.90
2018-07-13T02:50:04.520Z,99.90
2018-07-13T02:52:33.895Z,99.90
2018-07-13T02:55:03.865Z,99.90
2018-07-13T02:57:33.161Z,99.90
2018-07-13T03:00:02.574Z,99.90
2018-07-13T03:02:32.071Z,99.90
2018-07-13T03:05:01.464Z,99.90
2018-07-13T03:07:30.776Z,99.90
2018-07-13T03:10:00.167Z,99.90
2018-07-13T03:12:29.693Z,99.90
2018-07-13T03:14:59.133Z,99.90
2018-07-13T03:17:28.485Z,99.90
2018-07-13T03:19:57.849Z,99.90
2018-07-13T03:22:27.153Z,99.90
2018-07-13T03:24:56.504Z,99.90
2018-07-13T03:27:25.813Z,99.90
2018-07-13T03:29:55.130Z,99.90
2018-07-13T03:32:24.430Z,99.90
2018-07-13T03:34:54.522Z,99.90
2018-07-13T03:37:23.799Z,99.90
2018-07-13T03:39:53.127Z,99.90
2018-07-13T03:42:22.401Z,99.90
2018-07-13T03:44:51.718Z,99.90
2018-07-13T03:47:20.994Z,99.90
2018-07-13T03:49:50.356Z,99.90
2018-07-13T03:52:19.674Z,99.90
2018-07-13T03:54:48.981Z,99.90
2018-07-13T03:57:18.298Z,99.90
2018-07-13T03:59:47.579Z,99.90
2018-07-13T04:02:16.884Z,99.90
2018-07-13T04:04:46.261Z,99.90
2018-07-13T04:07:15.658Z,99.90
2018-07-13T04:09:44.979Z,99.90
2018-07-13T04:12:14.390Z,99.90
2018-07-13T04:14:43.840Z,99.90
2018-07-13T04:17:13.211Z,99.90
2018-07-13T04:19:42.570Z,99.90
2018-07-13T04:22:11.936Z,99.90
2018-07-13T04:27:10.473Z,99.90
2018-07-13T04:29:40.047Z,99.90
2018-07-13T04:32:09.368Z,99.90
2018-07-13T04:34:38.702Z,99.90
2018-07-13T04:37:08.015Z,99.90
2018-07-13T04:39:37.344Z,99.90
2018-07-13T04:42:06.844Z,99.90
2018-07-13T04:44:36.176Z,99.90
2018-07-13T04:47:05.607Z,99.90
2018-07-13T04:49:35.184Z,99.90
2018-07-13T04:52:04.710Z,99.90
2018-07-13T04:54:34.073Z,99.90
2018-07-13T04:57:03.486Z,99.90
2018-07-13T04:59:32.866Z,99.90
2018-07-13T05:02:02.323Z,99.90
2018-07-13T05:04:31.711Z,99.90
2018-07-13T05:07:01.146Z,99.90
2018-07-13T05:09:31.566Z,99.90
2018-07-13T05:12:00.936Z,99.90
2018-07-13T05:14:31.018Z,99.90
2018-07-13T05:17:00.356Z,99.90
2018-07-13T05:19:29.710Z,99.90
2018-07-13T05:21:59.377Z,99.90
2018-07-13T05:24:29.678Z,99.90
2018-07-13T05:26:59.376Z,99.90
2018-07-13T05:29:28.937Z,99.90
2018-07-13T05:31:58.380Z,99.90
2018-07-13T05:34:28.088Z,99.90
2018-07-13T05:36:57.489Z,99.90
2018-07-13T05:39:26.982Z,99.90
2018-07-13T05:41:56.488Z,99.90
2018-07-13T05:44:25.943Z,99.90
2018-07-13T05:46:55.817Z,99.90
2018-07-13T05:49:25.224Z,99.90
2018-07-13T05:51:54.916Z,99.90
2018-07-13T05:54:24.368Z,99.90
2018-07-13T05:56:53.930Z,99.90
2018-07-13T05:59:23.587Z,99.90
2018-07-13T06:01:53.041Z,99.90
2018-07-13T06:04:22.598Z,99.90
2018-07-13T06:06:52.006Z,99.90
2018-07-13T06:09:21.466Z,99.90
2018-07-13T06:11:50.964Z,99.90
2018-07-13T06:16:49.131Z,99.90
2018-07-13T06:19:18.506Z,99.90
2018-07-13T06:21:47.853Z,99.90
2018-07-13T06:24:17.199Z,99.90
2018-07-13T06:26:46.892Z,99.90
2018-07-13T06:31:45.114Z,99.90
2018-07-13T06:34:14.479Z,99.90
2018-07-13T06:36:44.019Z,99.90
2018-07-13T06:39:13.929Z,99.90
2018-07-13T06:41:43.316Z,99.90
2018-07-13T06:44:12.848Z,99.90
2018-07-13T06:46:45.761Z,99.90
2018-07-13T06:49:15.857Z,99.90
2018-07-13T06:51:45.302Z,99.90
2018-07-13T06:54:14.709Z,99.90
2018-07-13T06:56:44.063Z,99.90
2018-07-13T06:59:17.213Z,99.90
2018-07-13T07:01:47.576Z,99.90
2018-07-13T07:04:22.179Z,99.90
2018-07-13T07:06:52.256Z,99.90
2018-07-13T07:09:22.251Z,99.90
2018-07-13T07:12:38.653Z,99.90
2018-07-13T07:15:08.068Z,99.90
2018-07-13T07:17:37.551Z,99.90
2018-07-13T07:20:10.017Z,99.90
2018-07-13T07:22:39.540Z,99.90
2018-07-13T07:25:08.918Z,99.90
2018-07-13T07:27:38.413Z,99.90
2018-07-13T07:32:36.891Z,99.90
2018-07-13T07:35:06.844Z,99.90
2018-07-13T07:37:36.890Z,99.90
2018-07-13T07:40:06.430Z,99.90
2018-07-13T07:42:35.970Z,99.90
2018-07-13T07:45:06.215Z,99.90
2018-07-13T07:47:36.150Z,99.90
2018-07-13T07:52:34.999Z,99.90
2018-07-13T07:55:04.396Z,99.90
2018-07-13T07:57:33.854Z,99.90
2018-07-13T08:00:04.104Z,99.90
2018-07-13T08:02:33.457Z,99.90
2018-07-13T08:05:02.910Z,99.90
2018-07-13T08:10:01.048Z,99.90
2018-07-13T08:12:30.605Z,99.90
2018-07-13T08:17:28.860Z,99.90
2018-07-13T08:19:58.355Z,99.90
2018-07-13T08:22:41.344Z,99.90
2018-07-13T08:25:14.686Z,99.90
2018-07-13T08:27:46.187Z,99.90
2018-07-13T08:30:18.408Z,99.90
2018-07-13T08:32:49.354Z,99.90
2018-07-13T08:35:19.175Z,99.90
2018-07-13T08:37:48.588Z,99.90
2018-07-13T08:40:17.938Z,99.90
2018-07-13T08:42:47.267Z,99.90
2018-07-13T08:45:17.260Z,99.90
2018-07-13T08:47:46.740Z,99.90
2018-07-13T08:50:16.120Z,99.90
2018-07-13T08:55:16.155Z,99.90
2018-07-13T09:00:17.478Z,99.90
2018-07-13T09:02:47.090Z,99.90
2018-07-13T09:05:16.608Z,99.00
2018-07-13T09:07:46.081Z,99.90
2018-07-13T09:10:15.636Z,99.90
2018-07-13T09:12:45.110Z,97.90
2018-07-13T09:15:14.913Z,99.90
2018-07-13T09:17:44.295Z,98.80
2018-07-13T09:20:14.363Z,98.20
2018-07-13T09:22:43.830Z,99.60
2018-07-13T09:25:13.249Z,97.80
2018-07-13T09:27:42.686Z,94.40
2018-07-13T09:30:12.762Z,94.50
2018-07-13T09:32:42.343Z,97.70
2018-07-13T09:35:12.081Z,98.00
2018-07-13T09:37:41.658Z,94.30
2018-07-13T09:40:11.134Z,91.20
2018-07-13T09:42:40.973Z,91.00
2018-07-13T09:45:10.437Z,92.40
2018-07-13T09:47:39.993Z,91.80
2018-07-13T09:50:11.312Z,90.30
2018-07-13T09:52:40.821Z,96.30
2018-07-13T09:55:10.313Z,92.10
2018-07-13T09:57:39.922Z,90.30
2018-07-13T10:02:39.727Z,89.20
2018-07-13T10:05:09.418Z,84.70
2018-07-13T10:07:39.813Z,85.60
2018-07-13T10:10:11.574Z,71.00
2018-07-13T10:12:41.274Z,73.40
2018-07-13T10:15:10.655Z,72.00
2018-07-13T10:17:40.046Z,78.00
2018-07-13T10:20:10.337Z,76.70
2018-07-13T10:25:10.360Z,81.90
2018-07-13T10:27:42.692Z,83.90
2018-07-13T10:30:13.400Z,92.80
2018-07-13T10:32:44.955Z,96.40
2018-07-13T10:37:43.682Z,97.00
2018-07-13T10:40:13.061Z,96.90
2018-07-13T10:42:42.501Z,99.00
2018-07-13T10:45:12.036Z,97.50
2018-07-13T10:47:41.881Z,96.80
2018-07-13T10:50:11.417Z,94.60
2018-07-13T10:52:41.027Z,96.00
2018-07-13T10:55:10.365Z,95.40
2018-07-13T10:57:40.363Z,94.50
2018-07-13T11:00:09.754Z,81.20
2018-07-13T11:02:39.580Z,71.00
2018-07-13T11:05:09.232Z,76.20
2018-07-13T11:07:41.244Z,83.20
2018-07-13T11:10:11.212Z,91.40
2018-07-13T11:15:13.332Z,94.10
2018-07-13T11:17:45.209Z,95.90
2018-07-13T11:20:16.307Z,91.80
2018-07-13T11:22:45.877Z,95.10
2018-07-13T11:25:15.590Z,97.30
2018-07-13T11:27:46.827Z,96.90
2018-07-13T11:30:16.516Z,95.20
2018-07-13T11:32:46.693Z,95.90
2018-07-13T11:37:44.940Z,93.50
2018-07-13T11:40:14.291Z,87.10
2018-07-13T11:42:43.705Z,89.20
2018-07-13T11:45:14.069Z,84.50
2018-07-13T11:47:43.369Z,79.80
2018-07-13T11:50:12.967Z,78.30
2018-07-13T11:52:42.414Z,77.30
2018-07-13T11:55:11.853Z,72.30
2018-07-13T11:57:41.206Z,65.50
2018-07-13T12:00:10.773Z,56.40
2018-07-13T12:02:41.154Z,59.40
2018-07-13T12:07:42.466Z,53.40
2018-07-13T12:10:11.642Z,54.60
2018-07-13T12:12:42.227Z,53.10
2018-07-13T12:15:11.677Z,55.30
2018-07-13T12:17:41.057Z,57.20
2018-07-13T12:20:10.357Z,56.10
2018-07-13T12:22:40.500Z,47.50
2018-07-13T12:25:09.922Z,48.70
2018-07-13T12:27:39.319Z,47.70
2018-07-13T12:30:08.928Z,49.60
2018-07-13T12:32:38.356Z,44.60
2018-07-13T12:35:08.457Z,44.00
2018-07-13T12:37:38.132Z,44.20
2018-07-13T12:40:07.581Z,47.70
2018-07-13T12:42:37.031Z,50.70
2018-07-13T12:45:07.010Z,47.20
2018-07-13T12:47:36.353Z,51.00
2018-07-13T12:50:05.825Z,49.80
2018-07-13T12:52:35.213Z,45.50
2018-07-13T12:55:04.604Z,48.20
2018-07-13T12:57:33.973Z,50.20
2018-07-13T13:00:03.388Z,51.30
2018-07-13T13:02:33.187Z,45.60
2018-07-13T13:05:02.253Z,45.90
2018-07-13T13:07:31.315Z,44.70
2018-07-13T13:10:00.348Z,42.10
2018-07-13T13:12:29.424Z,40.10
2018-07-13T13:14:58.454Z,39.40
2018-07-13T13:17:27.516Z,38.00
2018-07-13T13:19:56.770Z,38.20
2018-07-13T13:22:25.872Z,38.60
2018-07-13T13:24:54.925Z,40.60
2018-07-13T13:27:24.035Z,37.80
2018-07-13T13:29:53.105Z,40.20
2018-07-13T13:32:22.213Z,38.70
2018-07-13T13:34:51.348Z,41.10
2018-07-13T13:37:20.412Z,41.90
2018-07-13T13:39:49.720Z,40.70
2018-07-13T13:42:18.788Z,42.70
2018-07-13T13:44:47.902Z,39.90
2018-07-13T13:47:17.135Z,38.40
2018-07-13T13:49:46.224Z,38.50
2018-07-13T13:52:15.309Z,41.30
2018-07-13T13:54:44.505Z,43.70
2018-07-13T13:57:13.505Z,41.20
2018-07-13T13:59:42.553Z,44.30
2018-07-13T14:02:11.649Z,42.00
2018-07-13T14:04:40.768Z,37.00
2018-07-13T14:07:09.905Z,36.00
2018-07-13T14:09:38.928Z,35.90
2018-07-13T14:12:08.102Z,36.60
2018-07-13T14:17:05.715Z,36.00
2018-07-13T14:19:34.806Z,45.30
2018-07-13T14:24:32.540Z,61.20
2018-07-13T14:27:01.725Z,65.10
2018-07-13T14:29:30.917Z,67.60
2018-07-13T14:32:00.022Z,74.10
2018-07-13T14:34:29.147Z,72.00
2018-07-13T14:36:58.126Z,69.70
2018-07-13T14:41:55.819Z,74.30
2018-07-13T14:46:53.578Z,78.10
2018-07-13T14:49:22.690Z,81.20
2018-07-13T14:51:51.729Z,87.60
2018-07-13T14:54:20.766Z,90.30
2018-07-13T14:56:50.192Z,82.30
2018-07-13T14:59:19.245Z,79.80
2018-07-13T15:01:48.380Z,81.40
2018-07-13T15:04:17.436Z,79.60
2018-07-13T15:06:46.583Z,77.00
2018-07-13T15:09:15.814Z,75.10
2018-07-13T15:11:45.061Z,81.60
2018-07-13T15:16:42.974Z,78.70
2018-07-13T15:19:12.031Z,83.40
2018-07-13T15:21:41.105Z,82.10
2018-07-13T15:24:10.718Z,80.10
2018-07-13T15:29:08.562Z,79.90
2018-07-13T15:31:37.714Z,78.00
2018-07-13T15:34:06.781Z,76.50
2018-07-13T15:36:35.801Z,77.20
2018-07-13T15:39:05.909Z,80.70
2018-07-13T15:41:34.990Z,82.90
2018-07-13T15:44:04.264Z,81.80
2018-07-13T15:46:33.264Z,83.90
2018-07-13T15:49:02.306Z,84.20
2018-07-13T15:51:32.344Z,84.40
2018-07-13T15:54:01.440Z,81.00
2018-07-13T15:56:30.538Z,76.90
2018-07-13T15:59:00.268Z,79.50
2018-07-13T16:01:29.258Z,79.00
2018-07-13T16:03:58.338Z,76.00
2018-07-13T16:06:27.357Z,80.60
2018-07-13T16:08:56.359Z,71.70
2018-07-13T16:11:26.774Z,69.30
2018-07-13T16:13:56.214Z,69.70
2018-07-13T16:16:25.815Z,66.60
2018-07-13T16:18:55.253Z,66.50
2018-07-13T16:23:53.343Z,70.50
2018-07-13T16:28:51.548Z,69.70
2018-07-13T16:31:20.903Z,69.10
2018-07-13T16:33:50.371Z,78.30
2018-07-13T16:36:19.648Z,79.40
2018-07-13T16:38:49.022Z,80.40
2018-07-13T16:41:18.484Z,78.20
2018-07-13T16:43:48.677Z,75.70
2018-07-13T16:48:46.975Z,68.40
2018-07-13T16:51:16.424Z,73.00
2018-07-13T16:53:45.838Z,60.70
2018-07-13T16:56:15.980Z,68.60
2018-07-13T16:58:45.315Z,62.20
2018-07-13T17:01:14.703Z,64.40
2018-07-13T17:03:43.973Z,63.30
2018-07-13T17:06:13.449Z,66.40
2018-07-13T17:08:43.048Z,66.00
2018-07-13T17:11:12.419Z,65.60
2018-07-13T17:18:39.446Z,67.80
2018-07-13T17:21:08.930Z,67.10
2018-07-13T17:23:38.305Z,67.90
2018-07-13T17:26:08.134Z,64.50
2018-07-13T17:28:37.560Z,64.90
2018-07-13T17:31:07.093Z,68.70
2018-07-13T17:33:36.411Z,67.70
2018-07-13T17:36:05.684Z,73.50
2018-07-13T17:38:35.619Z,74.70
2018-07-13T17:41:05.022Z,80.50
2018-07-13T17:43:34.435Z,87.50
2018-07-13T17:46:03.988Z,96.60
2018-07-13T17:48:33.581Z,97.30
2018-07-13T17:51:02.990Z,99.30
2018-07-13T17:53:32.603Z,99.90
2018-07-13T17:56:01.997Z,99.90
2018-07-13T17:58:31.434Z,99.90
2018-07-13T18:01:01.602Z,99.90
2018-07-13T18:03:31.042Z,99.90
2018-07-13T18:06:00.403Z,99.90
2018-07-13T18:08:30.033Z,99.90
2018-07-13T18:10:59.520Z,99.90
2018-07-13T18:13:29.155Z,99.90
2018-07-13T18:15:58.662Z,99.90
2018-07-13T18:18:28.098Z,99.90
2018-07-13T18:20:57.852Z,99.90
2018-07-13T18:23:27.199Z,99.90
2018-07-13T18:25:56.464Z,99.90
2018-07-13T18:28:25.834Z,99.90
2018-07-13T18:30:55.164Z,99.90
2018-07-13T18:33:24.593Z,99.90
2018-07-13T18:35:53.897Z,99.90
2018-07-13T18:38:23.189Z,99.90
2018-07-13T18:40:52.538Z,99.90
2018-07-13T18:43:21.958Z,99.90
2018-07-13T18:45:51.290Z,99.90
2018-07-13T18:48:20.649Z,99.90
2018-07-13T18:50:50.049Z,99.90
2018-07-13T18:53:19.294Z,99.90
2018-07-13T18:55:48.629Z,99.90
2018-07-13T18:58:18.023Z,95.70
2018-07-13T19:00:47.333Z,95.40
2018-07-13T19:05:45.832Z,95.10
2018-07-13T19:08:15.196Z,95.80
2018-07-13T19:10:45.074Z,95.30
2018-07-13T19:13:14.721Z,95.80
2018-07-13T19:15:44.206Z,96.20
2018-07-13T19:18:13.504Z,96.00
2018-07-13T19:20:43.066Z,96.70
2018-07-13T19:23:12.459Z,99.90
2018-07-13T19:25:42.122Z,99.90
2018-07-13T19:28:11.473Z,99.90
2018-07-13T19:30:40.935Z,99.90
2018-07-13T19:33:10.285Z,99.90
2018-07-13T19:38:08.518Z,99.90
2018-07-13T19:40:37.874Z,99.90
2018-07-13T19:43:08.043Z,99.90
2018-07-13T19:45:37.560Z,99.90
2018-07-13T19:48:07.298Z,99.90
2018-07-13T19:50:36.805Z,99.90
2018-07-13T19:53:06.579Z,99.90
2018-07-13T19:55:35.868Z,99.90
2018-07-13T19:58:05.258Z,99.90
2018-07-13T20:00:34.620Z,99.90
2018-07-13T20:03:04.135Z,99.90
2018-07-13T20:05:33.589Z,99.90
2018-07-13T20:08:03.673Z,99.90
2018-07-13T20:10:33.088Z,99.90
2018-07-13T20:15:32.209Z,99.90
2018-07-13T20:20:34.016Z,99.90
2018-07-13T20:23:03.685Z,99.90
2018-07-13T20:25:33.207Z,99.90
2018-07-13T20:28:03.238Z,99.90
2018-07-13T20:30:33.091Z,99.90
2018-07-13T20:33:02.530Z,99.90
2018-07-13T20:35:31.880Z,99.90
2018-07-13T20:38:01.827Z,99.90
2018-07-13T20:40:31.186Z,99.90
2018-07-13T20:43:00.773Z,99.90
2018-07-13T20:45:30.133Z,99.90
2018-07-13T20:47:59.588Z,99.90
2018-07-13T20:50:29.132Z,99.90
2018-07-13T20:52:59.006Z,99.90
2018-07-13T20:55:28.484Z,99.90
2018-07-13T20:57:58.608Z,99.90
2018-07-13T21:00:28.111Z,99.90
2018-07-13T21:02:57.541Z,99.90
2018-07-13T21:07:55.663Z,99.90
2018-07-13T21:12:54.023Z,99.90
2018-07-13T21:15:23.418Z,99.90
2018-07-13T21:17:53.662Z,99.90
2018-07-13T21:20:23.495Z,99.90
2018-07-13T21:22:52.941Z,99.90
2018-07-13T21:25:22.272Z,99.90
2018-07-13T21:27:51.724Z,99.90
2018-07-13T21:30:21.092Z,99.90
2018-07-13T21:32:50.458Z,99.90
2018-07-13T21:35:19.854Z,99.90
2018-07-13T21:37:49.263Z,99.90
2018-07-13T21:40:18.642Z,99.90
2018-07-13T21:42:48.203Z,99.90
2018-07-13T21:45:18.700Z,99.90
2018-07-13T21:47:47.965Z,99.90
2018-07-13T21:50:17.389Z,99.90
2018-07-13T21:52:46.801Z,99.90
2018-07-13T21:55:16.075Z,99.90
2018-07-13T21:57:45.624Z,99.90
2018-07-13T22:00:14.939Z,99.90
2018-07-13T22:02:44.502Z,99.90
2018-07-13T22:05:13.825Z,99.90
2018-07-13T22:07:43.255Z,99.90
2018-07-13T22:10:12.669Z,99.90
2018-07-13T22:17:40.230Z,99.90
2018-07-13T22:20:09.797Z,99.90
2018-07-13T22:22:39.536Z,99.90
2018-07-13T22:25:08.817Z,99.90
2018-07-13T22:27:38.331Z,99.90
2018-07-13T22:30:07.837Z,99.90
2018-07-13T22:32:37.267Z,99.90
2018-07-13T22:35:07.059Z,99.90
2018-07-13T22:37:36.438Z,99.90
2018-07-13T22:40:05.807Z,99.90
2018-07-13T22:42:35.410Z,99.90
2018-07-13T22:45:04.984Z,99.90
2018-07-13T22:47:34.361Z,99.90
2018-07-13T22:50:03.867Z,99.90
2018-07-13T22:52:33.241Z,99.90
2018-07-13T22:55:02.616Z,99.90
2018-07-13T22:57:31.895Z,99.90
2018-07-13T23:00:01.284Z,99.90
2018-07-13T23:02:30.492Z,99.90
2018-07-13T23:04:59.759Z,99.90
2018-07-13T23:07:29.045Z,99.90
2018-07-13T23:09:58.355Z,99.90
2018-07-13T23:12:27.808Z,99.90
2018-07-13T23:14:57.312Z,99.90
2018-07-13T23:17:26.667Z,99.90
2018-07-13T23:19:55.971Z,99.90
2018-07-13T23:22:25.387Z,99.90
2018-07-13T23:24:54.916Z,99.90
2018-07-13T23:27:24.185Z,99.90
2018-07-13T23:29:53.697Z,99.90
2018-07-13T23:32:23.083Z,99.90
2018-07-13T23:34:52.768Z,99.90
2018-07-13T23:37:22.143Z,99.90
2018-07-13T23:39:51.502Z,99.90
2018-07-13T23:42:20.867Z,99.90
2018-07-13T23:47:19.275Z,99.90
2018-07-13T23:52:17.583Z,99.90
2018-07-13T23:54:46.897Z,99.90
2018-07-13T23:57:16.221Z,99.90
2018-07-13T23:59:45.598Z,99.90
